Time;durP1;ratioP1;P1;durP2;ratioP2;P2;SDS_P1;SDS_P2;PMS_P1;PMS_P2;Temp;Humidity;BMP_temperature;BMP_pressure;BME280_temperature;BME280_humidity;BME280_pressure;Samples;Min_cycle;Max_cycle;Signal;HPM_P1;HPM_P2
2023/04/10 00:02:15;;;;;;;46.97;29.90;;;10.80;59.80;;;;;;5068054;28;20522;-73
2023/04/10 00:04:42;;;;;;;47.67;30.50;;;10.70;59.80;;;;;;5066302;28;20137;-73
2023/04/10 00:07:10;;;;;;;46.97;28.88;;;10.70;60.00;;;;;;5065930;28;20139;-74
2023/04/10 00:09:37;;;;;;;48.28;30.20;;;10.70;60.10;;;;;;5067487;28;20895;-74
2023/04/10 00:12:04;;;;;;;47.15;29.70;;;10.70;60.10;;;;;;5046452;28;20112;-73
2023/04/10 00:14:31;;;;;;;47.03;30.75;;;10.70;60.10;;;;;;5065003;28;20057;-73
2023/04/10 00:16:58;;;;;;;50.10;31.87;;;10.70;60.10;;;;;;5057774;28;20152;-73
2023/04/10 00:19:26;;;;;;;50.85;30.73;;;10.70;60.10;;;;;;5066480;28;20135;-73
2023/04/10 00:21:53;;;;;;;51.13;32.35;;;10.70;60.10;;;;;;5051065;28;20049;-73
2023/04/10 00:24:20;;;;;;;50.42;31.70;;;10.60;60.00;;;;;;5049883;28;20356;-73
2023/04/10 00:26:47;;;;;;;50.65;31.88;;;10.60;60.00;;;;;;5067721;28;20132;-74
2023/04/10 00:29:14;;;;;;;51.90;32.50;;;10.60;60.20;;;;;;5049178;28;20541;-73
2023/04/10 00:31:41;;;;;;;51.13;32.63;;;10.50;60.20;;;;;;5048999;28;20553;-73
2023/04/10 00:34:08;;;;;;;51.40;32.00;;;10.50;60.20;;;;;;5043322;28;20598;-73
2023/04/10 00:36:37;;;;;;;52.10;32.17;;;10.50;60.30;;;;;;5060072;28;20315;-73
2023/04/10 00:39:04;;;;;;;46.70;31.65;;;10.50;60.20;;;;;;5066073;28;20049;-73
2023/04/10 00:41:31;;;;;;;51.40;33.67;;;10.50;60.30;;;;;;5049710;28;20128;-73
2023/04/10 00:43:59;;;;;;;52.10;34.42;;;10.50;60.20;;;;;;5048987;28;20092;-73
2023/04/10 00:46:26;;;;;;;53.45;33.55;;;10.40;60.10;;;;;;5065882;28;20052;-74
2023/04/10 00:48:55;;;;;;;54.00;34.10;;;10.40;60.10;;;;;;5048713;28;20128;-73
2023/04/10 00:51:22;;;;;;;58.05;36.22;;;10.40;60.30;;;;;;5038038;28;20508;-73
2023/04/10 00:53:51;;;;;;;53.83;34.30;;;10.40;60.40;;;;;;5056826;28;20103;-73
2023/04/10 00:56:19;;;;;;;53.42;35.35;;;10.30;60.40;;;;;;5065685;28;20057;-74
2023/04/10 00:58:46;;;;;;;55.58;36.08;;;10.30;60.30;;;;;;5066456;28;20486;-73
2023/04/10 01:01:13;;;;;;;56.47;35.97;;;10.30;60.50;;;;;;5067075;28;20084;-73
2023/04/10 01:03:41;;;;;;;59.25;38.88;;;10.30;60.50;;;;;;5049173;28;20115;-73
2023/04/10 01:06:16;;;;;;;59.33;37.03;;;10.30;60.50;;;;;;5049292;28;20137;-73
2023/04/10 01:08:53;;;;;;;59.70;37.50;;;10.20;60.50;;;;;;5056941;28;20045;-74
2023/04/10 01:11:30;;;;;;;58.78;37.47;;;10.20;60.60;;;;;;5045745;28;20057;-74
2023/04/10 01:14:07;;;;;;;62.85;39.00;;;10.10;60.90;;;;;;5038018;28;20585;-73
2023/04/10 01:16:39;;;;;;;62.53;38.33;;;10.10;60.80;;;;;;5044126;28;20052;-73
2023/04/10 01:19:15;;;;;;;62.93;39.13;;;10.10;60.90;;;;;;5035319;28;20528;-73
2023/04/10 01:21:42;;;;;;;57.17;38.30;;;10.00;60.90;;;;;;5048946;28;20099;-73
2023/04/10 01:24:24;;;;;;;62.35;39.85;;;10.00;61.10;;;;;;5030907;28;20068;-73
2023/04/10 01:27:10;;;;;;;62.25;40.13;;;10.00;61.20;;;;;;5051432;28;20045;-73
2023/04/10 01:29:45;;;;;;;65.85;41.38;;;10.00;61.30;;;;;;5037362;28;20612;-73
2023/04/10 01:32:16;;;;;;;60.37;40.00;;;10.00;61.40;;;;;;5032129;28;20056;-73
2023/04/10 01:34:46;;;;;;;62.55;40.00;;;10.00;61.50;;;;;;5046129;28;20320;-73
2023/04/10 01:37:17;;;;;;;69.47;43.50;;;10.00;61.60;;;;;;5061882;28;20519;-73
2023/04/10 01:39:47;;;;;;;70.40;45.33;;;10.00;61.60;;;;;;5051403;28;20131;-74
2023/04/10 01:42:19;;;;;;;66.78;42.78;;;10.00;61.60;;;;;;5060461;28;20084;-74
2023/04/10 01:44:49;;;;;;;63.17;41.00;;;9.90;61.70;;;;;;5042324;28;20608;-73
2023/04/10 01:47:17;;;;;;;66.75;41.85;;;9.90;61.70;;;;;;5059468;28;20455;-73
2023/04/10 01:49:47;;;;;;;65.18;43.42;;;9.90;61.70;;;;;;5053190;28;20145;-73
2023/04/10 01:52:15;;;;;;;66.80;43.20;;;9.90;61.70;;;;;;5053450;28;20140;-73
2023/04/10 01:54:48;;;;;;;66.15;42.20;;;9.80;61.70;;;;;;5068110;28;20049;-73
2023/04/10 01:57:21;;;;;;;69.37;41.53;;;9.80;61.80;;;;;;5065364;28;20652;-73
2023/04/10 01:59:55;;;;;;;70.78;42.83;;;9.80;61.80;;;;;;5039543;28;20587;-73
2023/04/10 02:02:22;;;;;;;69.25;42.95;;;9.80;61.60;;;;;;5030769;28;20629;-73
2023/04/10 02:04:50;;;;;;;66.18;41.88;;;9.70;61.50;;;;;;5045503;28;20133;-74
2023/04/10 02:07:24;;;;;;;70.95;43.33;;;9.60;61.70;;;;;;5044412;28;20041;-74
2023/04/10 02:09:58;;;;;;;67.40;43.03;;;9.60;61.60;;;;;;5055929;28;20507;-74
2023/04/10 02:12:29;;;;;;;67.93;42.85;;;9.50;61.60;;;;;;5059971;28;20059;-73
2023/04/10 02:15:01;;;;;;;68.25;42.47;;;9.50;61.70;;;;;;5042047;28;20057;-73
2023/04/10 02:17:30;;;;;;;66.43;42.50;;;9.40;61.70;;;;;;5059564;28;20049;-73
2023/04/10 02:19:58;;;;;;;72.30;43.20;;;9.40;61.80;;;;;;5038620;28;20045;-73
2023/04/10 02:22:25;;;;;;;68.07;42.63;;;9.40;62.00;;;;;;5036470;28;20122;-73
2023/04/10 02:24:53;;;;;;;70.95;43.78;;;9.40;62.00;;;;;;5067977;28;20049;-73
2023/04/10 02:27:27;;;;;;;67.25;42.55;;;9.40;62.00;;;;;;5042380;28;20042;-73
2023/04/10 02:29:55;;;;;;;71.57;44.65;;;9.30;62.10;;;;;;5036707;28;20049;-73
2023/04/10 02:32:24;;;;;;;69.47;42.60;;;9.30;62.00;;;;;;5040372;28;20591;-73
2023/04/10 02:34:51;;;;;;;76.70;44.87;;;9.20;62.20;;;;;;5031291;28;20103;-73
2023/04/10 02:37:18;;;;;;;69.43;44.40;;;9.20;62.00;;;;;;5039531;28;20132;-73
2023/04/10 02:39:45;;;;;;;72.00;43.47;;;9.20;62.20;;;;;;5029857;28;20075;-73
2023/04/10 02:42:12;;;;;;;70.10;43.63;;;9.20;62.20;;;;;;5062185;28;20118;-73
2023/04/10 02:44:40;;;;;;;70.13;43.58;;;9.20;62.10;;;;;;5043401;28;20065;-73
2023/04/10 02:47:07;;;;;;;70.47;41.53;;;9.00;62.10;;;;;;5049051;28;20052;-73
2023/04/10 02:49:37;;;;;;;67.05;41.78;;;9.00;62.30;;;;;;5049718;28;20068;-73
2023/04/10 02:52:11;;;;;;;66.32;42.50;;;9.00;62.30;;;;;;5067770;28;20529;-73
2023/04/10 02:54:38;;;;;;;69.05;43.25;;;8.90;62.50;;;;;;5054182;28;20131;-73
2023/04/10 02:57:05;;;;;;;64.72;40.72;;;8.90;62.50;;;;;;5061554;28;20045;-73
2023/04/10 02:59:33;;;;;;;68.80;40.93;;;8.90;62.70;;;;;;5065041;28;20049;-73
2023/04/10 03:02:01;;;;;;;69.85;41.33;;;8.90;62.70;;;;;;5044758;28;20072;-73
2023/04/10 03:04:32;;;;;;;68.95;42.92;;;8.80;62.60;;;;;;5049042;28;20095;-73
2023/04/10 03:07:00;;;;;;;67.82;42.50;;;8.80;62.60;;;;;;5045689;28;20048;-73
2023/04/10 03:09:27;;;;;;;71.05;42.75;;;8.80;62.70;;;;;;5060240;28;20052;-73
2023/04/10 03:11:55;;;;;;;71.83;42.13;;;8.80;62.80;;;;;;5040939;28;20521;-73
2023/04/10 03:14:22;;;;;;;70.03;43.15;;;8.80;63.00;;;;;;5050140;28;20055;-73
2023/04/10 03:16:49;;;;;;;70.00;42.92;;;8.80;62.90;;;;;;5034985;28;20053;-73
2023/04/10 03:19:16;;;;;;;67.45;42.35;;;8.80;63.00;;;;;;5041895;28;20041;-73
2023/04/10 03:21:43;;;;;;;63.42;41.17;;;8.80;63.10;;;;;;5038868;28;20076;-73
2023/04/10 03:24:11;;;;;;;67.30;41.47;;;8.80;63.10;;;;;;5054792;28;20049;-73
2023/04/10 03:26:38;;;;;;;70.53;42.63;;;8.80;63.00;;;;;;5050057;28;20041;-73
2023/04/10 03:29:05;;;;;;;67.15;41.47;;;8.80;62.90;;;;;;5031911;28;20573;-73
2023/04/10 03:31:34;;;;;;;71.10;42.67;;;8.80;62.90;;;;;;5045683;28;20136;-73
2023/04/10 03:34:01;;;;;;;71.80;42.33;;;8.80;62.80;;;;;;5036984;28;20049;-73
2023/04/10 03:36:28;;;;;;;66.97;41.03;;;8.80;62.90;;;;;;5039650;28;20049;-73
2023/04/10 03:38:55;;;;;;;70.90;42.25;;;8.80;62.80;;;;;;5038110;28;20069;-73
2023/04/10 03:41:24;;;;;;;66.10;41.42;;;8.80;62.90;;;;;;5063200;28;20183;-73
2023/04/10 03:43:52;;;;;;;75.25;43.03;;;8.80;62.90;;;;;;5043571;28;20080;-73
2023/04/10 03:46:19;;;;;;;68.57;41.70;;;8.90;62.90;;;;;;5054176;28;20038;-73
2023/04/10 03:48:46;;;;;;;64.90;40.17;;;8.90;62.80;;;;;;5046515;28;20494;-73
2023/04/10 03:51:13;;;;;;;68.00;41.67;;;8.90;62.70;;;;;;5040903;28;20041;-73
2023/04/10 03:53:40;;;;;;;66.65;41.50;;;8.90;62.80;;;;;;5055317;28;20164;-73
2023/04/10 03:56:11;;;;;;;66.03;41.40;;;8.90;62.80;;;;;;5049450;28;20041;-73
2023/04/10 03:58:39;;;;;;;66.25;40.10;;;8.90;62.80;;;;;;5035782;28;20589;-73
2023/04/10 04:01:07;;;;;;;67.33;40.27;;;8.90;62.80;;;;;;5048867;28;20063;-73
2023/04/10 04:03:48;;;;;;;65.70;39.63;;;8.90;62.80;;;;;;5048319;28;20423;-73
2023/04/10 04:06:28;;;;;;;67.22;40.83;;;8.80;62.70;;;;;;5042226;28;20045;-73
2023/04/10 04:09:24;;;;;;;62.38;38.92;;;8.80;62.80;;;;;;5009653;28;20057;-73
2023/04/10 04:12:02;;;;;;;62.83;38.72;;;8.80;63.00;;;;;;5057334;28;20130;-73
2023/04/10 04:14:53;;;;;;;65.93;38.60;;;8.80;63.00;;;;;;5047088;28;20561;-73
2023/04/10 04:17:36;;;;;;;61.38;37.08;;;8.80;63.10;;;;;;5038264;28;20052;-72
2023/04/10 04:20:07;;;;;;;62.30;38.90;;;8.80;63.20;;;;;;5046165;28;20056;-73
2023/04/10 04:22:43;;;;;;;62.55;38.80;;;8.80;63.10;;;;;;5050164;28;20042;-73
2023/04/10 04:25:29;;;;;;;64.35;38.85;;;8.80;63.30;;;;;;5055216;28;20500;-73
2023/04/10 04:28:25;;;;;;;61.77;39.10;;;8.80;63.30;;;;;;4992002;28;20047;-72
2023/04/10 04:31:31;;;;;;;63.33;37.60;;;8.80;63.20;;;;;;5055029;28;20057;-73
2023/04/10 04:34:29;;;;;;;60.85;38.65;;;8.80;63.20;;;;;;5059876;28;20050;-73
2023/04/10 04:37:21;;;;;;;58.83;36.33;;;8.70;63.20;;;;;;5060428;28;20581;-73
2023/04/10 04:40:02;;;;;;;60.85;36.22;;;8.60;63.30;;;;;;5039725;28;20136;-73
2023/04/10 04:42:40;;;;;;;58.60;35.57;;;8.60;63.40;;;;;;5053376;28;20135;-73
2023/04/10 04:45:30;;;;;;;60.88;37.08;;;8.60;63.40;;;;;;5032414;28;20238;-73
2023/04/10 04:48:11;;;;;;;59.70;36.78;;;8.70;63.40;;;;;;5047129;28;20045;-73
2023/04/10 04:50:52;;;;;;;62.72;35.92;;;8.60;63.40;;;;;;5042051;28;20046;-73
2023/04/10 04:53:39;;;;;;;60.78;37.28;;;8.60;63.50;;;;;;5054991;28;20416;-73
2023/04/10 04:56:26;;;;;;;60.27;35.00;;;8.60;63.60;;;;;;5044437;28;20049;-73
2023/04/10 04:59:09;;;;;;;57.33;34.30;;;8.60;63.60;;;;;;5043968;28;20044;-73
2023/04/10 05:01:55;;;;;;;60.42;34.67;;;8.60;63.60;;;;;;5065215;28;20056;-73
2023/04/10 05:04:46;;;;;;;53.85;32.83;;;8.60;63.50;;;;;;5048689;28;20662;-73
2023/04/10 05:07:24;;;;;;;55.58;32.50;;;8.60;63.60;;;;;;5050162;28;20088;-73
2023/04/10 05:10:10;;;;;;;53.73;31.87;;;8.60;63.70;;;;;;5062398;28;20052;-73
2023/04/10 05:12:41;;;;;;;53.10;31.50;;;8.60;63.70;;;;;;5057483;28;20730;-73
2023/04/10 05:15:31;;;;;;;51.75;31.20;;;8.50;63.80;;;;;;5042946;28;20566;-73
2023/04/10 05:18:18;;;;;;;50.92;30.50;;;8.50;63.90;;;;;;4935267;28;20125;-73
2023/04/10 05:21:15;;;;;;;49.28;28.70;;;8.50;64.00;;;;;;4993009;28;20063;-73
2023/04/10 05:24:01;;;;;;;53.07;29.03;;;8.50;64.10;;;;;;5064881;28;20045;-73
2023/04/10 05:27:00;;;;;;;51.33;28.30;;;8.40;64.20;;;;;;5034313;28;20053;-72
2023/04/10 05:29:46;;;;;;;49.95;28.88;;;8.40;64.30;;;;;;5062583;28;20192;-72
2023/04/10 05:32:22;;;;;;;48.35;28.42;;;8.30;64.60;;;;;;5056553;28;20045;-73
2023/04/10 05:35:00;;;;;;;46.85;27.90;;;8.30;64.50;;;;;;5043899;28;20046;-72
2023/04/10 05:38:00;;;;;;;45.63;27.00;;;8.30;64.50;;;;;;5048167;28;20048;-72
2023/04/10 05:40:45;;;;;;;48.70;27.50;;;8.30;64.50;;;;;;5055851;28;20136;-73
2023/04/10 05:43:41;;;;;;;48.47;26.98;;;8.30;64.60;;;;;;4990399;28;20128;-72
2023/04/10 05:46:13;;;;;;;47.95;27.13;;;8.30;64.70;;;;;;5031786;28;20045;-72
2023/04/10 05:48:50;;;;;;;46.65;27.17;;;8.30;64.70;;;;;;5048479;28;20152;-72
2023/04/10 05:51:37;;;;;;;46.03;26.43;;;8.30;64.80;;;;;;5061244;28;20049;-72
2023/04/10 05:54:38;;;;;;;46.80;25.85;;;8.30;64.90;;;;;;5019640;28;20059;-73
2023/04/10 05:57:25;;;;;;;51.58;28.48;;;8.30;65.00;;;;;;5055742;28;20594;-73
2023/04/10 06:00:20;;;;;;;49.42;26.80;;;8.30;64.90;;;;;;5049541;28;20059;-73
2023/04/10 06:03:19;;;;;;;48.03;26.48;;;8.30;65.00;;;;;;5044394;28;20223;-73
2023/04/10 06:05:53;;;;;;;51.47;26.67;;;8.30;65.10;;;;;;5048088;28;20041;-73
2023/04/10 06:08:21;;;;;;;50.80;27.52;;;8.30;65.20;;;;;;5061752;28;20051;-72
2023/04/10 06:10:50;;;;;;;48.80;28.63;;;8.30;65.30;;;;;;5047842;28;20045;-73
2023/04/10 06:13:17;;;;;;;49.95;27.92;;;8.40;65.20;;;;;;5066713;28;20048;-73
2023/04/10 06:15:44;;;;;;;48.95;28.90;;;8.40;65.30;;;;;;5049656;28;20140;-73
2023/04/10 06:18:11;;;;;;;50.17;27.10;;;8.40;65.30;;;;;;5063181;28;20080;-73
2023/04/10 06:20:38;;;;;;;52.05;28.80;;;8.40;65.30;;;;;;5063635;28;20049;-73
2023/04/10 06:23:05;;;;;;;50.10;28.08;;;8.40;65.40;;;;;;5050104;28;20064;-73
2023/04/10 06:25:32;;;;;;;50.00;27.73;;;8.40;65.50;;;;;;5061024;28;20095;-73
2023/04/10 06:28:02;;;;;;;50.92;27.48;;;8.50;65.50;;;;;;5067675;28;20582;-73
2023/04/10 06:30:29;;;;;;;49.20;27.00;;;8.50;65.70;;;;;;5049790;28;20534;-73
2023/04/10 06:32:56;;;;;;;50.40;27.77;;;8.50;65.60;;;;;;5048067;28;20041;-73
2023/04/10 06:35:23;;;;;;;49.08;26.83;;;8.50;65.60;;;;;;5048324;28;20484;-73
2023/04/10 06:37:50;;;;;;;50.33;27.73;;;8.60;65.60;;;;;;5049997;28;20606;-72
2023/04/10 06:40:17;;;;;;;49.55;26.88;;;8.60;65.70;;;;;;5066012;28;20140;-73
2023/04/10 06:42:44;;;;;;;48.50;26.20;;;8.60;65.60;;;;;;5064101;28;20056;-73
2023/04/10 06:45:23;;;;;;;47.80;27.40;;;8.60;65.50;;;;;;5066830;28;20060;-73
2023/04/10 06:47:51;;;;;;;49.50;27.80;;;8.60;65.50;;;;;;5067067;28;20088;-73
2023/04/10 06:50:18;;;;;;;44.92;23.33;;;8.70;65.50;;;;;;5055948;28;20044;-73
2023/04/10 06:52:45;;;;;;;46.13;25.60;;;8.80;65.70;;;;;;5059204;28;20112;-73
2023/04/10 06:55:12;;;;;;;47.40;24.90;;;8.80;65.50;;;;;;5063808;28;20142;-73
2023/04/10 06:57:40;;;;;;;41.15;24.42;;;8.80;65.60;;;;;;5066420;28;20049;-73
2023/04/10 07:00:08;;;;;;;45.05;24.73;;;8.90;65.50;;;;;;5065535;28;20072;-73
2023/04/10 07:02:37;;;;;;;44.40;24.38;;;8.90;65.60;;;;;;5062161;28;20045;-72
2023/04/10 07:05:05;;;;;;;44.22;24.80;;;8.90;65.50;;;;;;5060454;28;20171;-73
2023/04/10 07:07:32;;;;;;;42.60;23.67;;;9.00;65.40;;;;;;5054116;28;20459;-73
2023/04/10 07:09:58;;;;;;;42.33;23.67;;;9.00;65.40;;;;;;5068056;28;20132;-73
2023/04/10 07:12:26;;;;;;;39.42;22.30;;;9.00;65.30;;;;;;5063389;28;20053;-73
2023/04/10 07:14:53;;;;;;;40.75;23.73;;;9.00;65.30;;;;;;5056977;28;21007;-72
2023/04/10 07:17:19;;;;;;;40.65;24.05;;;9.10;65.30;;;;;;5057780;28;20459;-73
2023/04/10 07:19:48;;;;;;;43.80;23.07;;;9.20;65.30;;;;;;5040686;28;20509;-74
2023/04/10 07:22:15;;;;;;;39.83;22.95;;;9.20;65.40;;;;;;5063097;28;20060;-73
2023/04/10 07:24:43;;;;;;;36.85;21.33;;;9.20;65.40;;;;;;5066017;28;20052;-73
2023/04/10 07:27:11;;;;;;;36.95;20.42;;;9.20;65.30;;;;;;5058884;28;20127;-73
2023/04/10 07:29:38;;;;;;;38.25;21.73;;;9.30;65.20;;;;;;5042392;28;20221;-73
2023/04/10 07:32:05;;;;;;;39.30;21.70;;;9.40;65.10;;;;;;5055951;28;20050;-73
2023/04/10 07:34:32;;;;;;;37.92;21.13;;;9.40;65.00;;;;;;5037288;28;20184;-73
2023/04/10 07:37:00;;;;;;;38.60;18.88;;;9.40;64.90;;;;;;5055198;28;20422;-73
2023/04/10 07:39:27;;;;;;;33.30;18.30;;;9.50;65.00;;;;;;5055471;28;20059;-73
2023/04/10 07:41:54;;;;;;;33.88;19.50;;;9.60;64.90;;;;;;5042116;28;20136;-73
2023/04/10 07:44:21;;;;;;;33.40;18.17;;;9.60;64.70;;;;;;5067747;28;20060;-73
2023/04/10 07:46:48;;;;;;;35.00;19.05;;;9.70;64.70;;;;;;5059740;28;20049;-73
2023/04/10 07:49:15;;;;;;;34.15;17.92;;;9.80;64.80;;;;;;5065878;28;20095;-74
2023/04/10 07:51:42;;;;;;;28.58;14.77;;;9.80;64.50;;;;;;5068109;28;20056;-73
2023/04/10 07:54:10;;;;;;;31.95;18.10;;;10.00;64.00;;;;;;5061069;28;20506;-73
2023/04/10 07:56:37;;;;;;;29.53;16.27;;;10.00;64.00;;;;;;5062856;28;20150;-73
2023/04/10 07:59:04;;;;;;;30.85;15.32;;;10.10;63.90;;;;;;5058913;28;20416;-73
2023/04/10 08:01:31;;;;;;;25.63;14.10;;;10.20;63.60;;;;;;5066727;28;20079;-73
2023/04/10 08:03:58;;;;;;;28.90;16.20;;;10.30;63.50;;;;;;5053853;28;20132;-73
2023/04/10 08:06:25;;;;;;;27.30;15.35;;;10.40;63.30;;;;;;5056235;28;20551;-73
2023/04/10 08:08:52;;;;;;;25.33;14.07;;;10.50;62.70;;;;;;5065685;28;20472;-73
2023/04/10 08:11:27;;;;;;;27.98;15.32;;;10.60;62.50;;;;;;5059903;28;20076;-73
2023/04/10 08:13:55;;;;;;;24.15;13.73;;;10.70;62.20;;;;;;5047680;28;20060;-73
2023/04/10 08:16:23;;;;;;;26.13;14.23;;;10.80;61.60;;;;;;5050545;28;20052;-73
2023/04/10 08:18:51;;;;;;;25.40;14.60;;;10.90;61.60;;;;;;5060561;28;20052;-73
2023/04/10 08:21:18;;;;;;;25.07;14.50;;;11.00;61.10;;;;;;5067622;28;20057;-73
2023/04/10 08:23:45;;;;;;;26.25;15.05;;;11.10;61.30;;;;;;5065167;28;20175;-74
2023/04/10 08:26:12;;;;;;;26.58;15.02;;;11.10;61.30;;;;;;5065290;28;20045;-73
2023/04/10 08:28:45;;;;;;;23.55;13.50;;;11.20;61.40;;;;;;5064328;28;20132;-73
2023/04/10 08:31:12;;;;;;;22.15;13.25;;;11.30;60.70;;;;;;5060447;28;20057;-72
2023/04/10 08:33:40;;;;;;;23.07;13.83;;;11.40;60.80;;;;;;5056975;28;20052;-73
2023/04/10 08:36:08;;;;;;;24.13;13.50;;;11.40;60.60;;;;;;5057087;28;20049;-73
2023/04/10 08:38:34;;;;;;;22.25;13.07;;;11.50;60.20;;;;;;5062726;28;20069;-73
2023/04/10 08:41:01;;;;;;;22.58;12.23;;;11.50;60.20;;;;;;5067069;28;20045;-74
2023/04/10 08:43:29;;;;;;;22.77;14.20;;;11.70;59.50;;;;;;5047931;28;20064;-73
2023/04/10 08:45:57;;;;;;;20.43;11.30;;;11.70;58.80;;;;;;5065169;28;20052;-73
2023/04/10 08:48:31;;;;;;;22.23;12.70;;;11.80;58.40;;;;;;5061735;28;20137;-74
2023/04/10 08:51:01;;;;;;;22.20;12.52;;;11.90;58.20;;;;;;5061097;28;20503;-74
2023/04/10 08:53:30;;;;;;;22.00;11.60;;;11.90;58.10;;;;;;5068517;28;20052;-73
2023/04/10 08:55:59;;;;;;;20.77;12.68;;;11.90;58.40;;;;;;5070040;28;20553;-74
2023/04/10 08:58:26;;;;;;;21.13;11.40;;;12.00;58.30;;;;;;5062044;28;20130;-74
2023/04/10 09:00:53;;;;;;;19.45;10.85;;;12.10;58.30;;;;;;5046702;28;20130;-74
2023/04/10 09:03:22;;;;;;;16.52;9.95;;;12.10;58.00;;;;;;5056528;28;20053;-74
2023/04/10 09:05:49;;;;;;;17.65;9.98;;;12.20;57.30;;;;;;5037326;28;20041;-74
2023/04/10 09:08:16;;;;;;;19.27;10.95;;;12.30;57.10;;;;;;5058130;28;20055;-74
2023/04/10 09:10:43;;;;;;;17.93;10.00;;;12.40;57.20;;;;;;5051937;28;20124;-74
2023/04/10 09:13:10;;;;;;;16.90;9.50;;;12.50;56.30;;;;;;5049608;28;20056;-73
2023/04/10 09:15:56;;;;;;;17.90;9.85;;;12.50;56.70;;;;;;5033975;28;20092;-73
2023/04/10 09:18:44;;;;;;;17.23;9.85;;;12.50;56.90;;;;;;5055215;28;20044;-74
2023/04/10 09:21:14;;;;;;;16.02;9.77;;;12.60;55.90;;;;;;5064923;28;20110;-74
2023/04/10 09:23:43;;;;;;;15.73;9.17;;;12.70;56.30;;;;;;5062334;28;20096;-74
2023/04/10 09:26:24;;;;;;;16.00;9.00;;;12.70;55.90;;;;;;5061526;28;20139;-74
2023/04/10 09:28:59;;;;;;;16.10;9.18;;;12.80;55.30;;;;;;5062443;28;20148;-74
2023/04/10 09:31:31;;;;;;;16.35;10.45;;;12.90;55.00;;;;;;5061373;28;20049;-73
2023/04/10 09:34:11;;;;;;;17.95;9.30;;;13.00;54.40;;;;;;5058235;28;20056;-73
2023/04/10 09:36:40;;;;;;;16.43;8.77;;;13.00;54.00;;;;;;5066694;28;20553;-73
2023/04/10 09:39:07;;;;;;;15.32;8.45;;;13.10;53.40;;;;;;5060696;28;20052;-73
2023/04/10 09:41:37;;;;;;;14.70;8.30;;;13.10;53.20;;;;;;5064881;28;20165;-73
2023/04/10 09:44:07;;;;;;;15.38;8.90;;;13.10;53.70;;;;;;5062453;28;20430;-73
2023/04/10 09:46:34;;;;;;;16.67;8.85;;;13.20;54.40;;;;;;5063755;28;20053;-74
2023/04/10 09:49:04;;;;;;;14.37;8.50;;;13.30;54.70;;;;;;5055976;28;20049;-73
2023/04/10 09:51:34;;;;;;;14.50;7.50;;;13.30;54.60;;;;;;5065197;28;20570;-73
2023/04/10 09:54:02;;;;;;;15.73;8.50;;;13.30;54.00;;;;;;5063101;28;20056;-73
2023/04/10 09:56:29;;;;;;;13.98;8.25;;;13.40;53.80;;;;;;5046155;28;20055;-72
2023/04/10 09:58:58;;;;;;;12.50;8.07;;;13.50;53.90;;;;;;5064028;28;20059;-72
2023/04/10 10:01:26;;;;;;;12.50;7.47;;;13.50;53.80;;;;;;5059950;28;20150;-73
2023/04/10 10:03:55;;;;;;;12.95;7.03;;;13.60;52.40;;;;;;5059190;28;20045;-73
2023/04/10 10:06:22;;;;;;;14.32;6.00;;;13.60;51.80;;;;;;5066370;28;20045;-72
2023/04/10 10:08:51;;;;;;;12.20;6.30;;;13.60;52.20;;;;;;5063120;28;20056;-73
2023/04/10 10:11:21;;;;;;;12.63;7.10;;;13.70;52.00;;;;;;5022214;28;20061;-72
2023/04/10 10:13:52;;;;;;;21.47;6.63;;;13.70;52.30;;;;;;5068746;28;20128;-72
2023/04/10 10:16:23;;;;;;;16.88;7.43;;;13.80;51.80;;;;;;5064322;28;20068;-73
2023/04/10 10:18:59;;;;;;;11.57;6.88;;;13.90;51.70;;;;;;5057729;28;20045;-73
2023/04/10 10:21:28;;;;;;;11.32;5.97;;;13.90;51.20;;;;;;5064042;28;20136;-73
2023/04/10 10:23:58;;;;;;;12.85;6.75;;;13.90;51.10;;;;;;5079479;28;20122;-73
2023/04/10 10:26:27;;;;;;;9.83;5.10;;;13.90;51.60;;;;;;5058592;28;20167;-73
2023/04/10 10:28:56;;;;;;;10.35;6.05;;;14.00;51.30;;;;;;5063879;28;20053;-73
2023/04/10 10:31:25;;;;;;;12.00;7.28;;;14.00;51.50;;;;;;5041496;28;20131;-73
2023/04/10 10:33:53;;;;;;;11.13;6.93;;;14.00;50.90;;;;;;5062420;28;20157;-73
2023/04/10 10:36:20;;;;;;;11.32;6.70;;;14.00;51.50;;;;;;5062334;28;20543;-73
2023/04/10 10:38:56;;;;;;;10.87;6.20;;;14.10;51.20;;;;;;5045431;28;20045;-73
2023/04/10 10:41:32;;;;;;;11.35;6.70;;;14.10;51.80;;;;;;5049099;28;20573;-73
2023/04/10 10:44:10;;;;;;;12.55;6.07;;;14.10;51.50;;;;;;5057199;28;20047;-72
2023/04/10 10:46:42;;;;;;;11.50;5.55;;;14.10;51.60;;;;;;5065477;28;20060;-73
2023/04/10 10:49:09;;;;;;;9.93;5.63;;;14.10;51.20;;;;;;5065577;28;20049;-73
2023/04/10 10:51:44;;;;;;;10.13;6.10;;;14.10;51.20;;;;;;5066515;28;20080;-73
2023/04/10 10:54:30;;;;;;;11.02;5.82;;;14.10;51.20;;;;;;5058095;28;20057;-73
2023/04/10 10:56:59;;;;;;;9.80;5.85;;;14.20;51.30;;;;;;5060696;28;20508;-74
2023/04/10 10:59:54;;;;;;;9.65;5.65;;;14.20;51.10;;;;;;5060558;28;20051;-74
2023/04/10 11:02:21;;;;;;;14.35;5.45;;;14.20;51.50;;;;;;5062066;28;20045;-73
2023/04/10 11:04:49;;;;;;;10.43;6.47;;;14.20;51.40;;;;;;5063544;28;20126;-74
2023/04/10 11:07:16;;;;;;;9.57;6.03;;;14.20;51.60;;;;;;5059924;28;20077;-74
2023/04/10 11:09:48;;;;;;;9.00;5.47;;;14.30;51.70;;;;;;5061543;28;20064;-74
2023/04/10 11:12:19;;;;;;;8.68;4.97;;;14.30;51.50;;;;;;5056101;28;20054;-74
2023/04/10 11:14:57;;;;;;;9.55;4.93;;;14.30;51.60;;;;;;5066047;28;20095;-74
2023/04/10 11:17:52;;;;;;;8.37;4.40;;;14.40;51.50;;;;;;5063998;28;20199;-74
2023/04/10 11:20:25;;;;;;;8.52;4.05;;;14.40;51.10;;;;;;5056238;28;20138;-73
2023/04/10 11:23:12;;;;;;;9.52;4.90;;;14.50;50.90;;;;;;5063280;28;20211;-74
2023/04/10 11:25:50;;;;;;;9.68;5.68;;;14.50;51.40;;;;;;5059969;28;20140;-74
2023/04/10 11:28:38;;;;;;;9.18;5.40;;;14.50;51.80;;;;;;5046224;28;20412;-74
2023/04/10 11:31:20;;;;;;;9.77;4.80;;;14.60;51.80;;;;;;5056858;28;20124;-73
2023/04/10 11:33:48;;;;;;;8.32;4.38;;;14.60;51.40;;;;;;5057008;28;20128;-73
2023/04/10 11:36:17;;;;;;;9.57;5.03;;;14.70;51.30;;;;;;5066854;28;20077;-72
2023/04/10 11:38:59;;;;;;;8.13;4.63;;;14.70;51.00;;;;;;5057351;28;20522;-73
2023/04/10 11:41:29;;;;;;;7.95;4.32;;;14.70;50.80;;;;;;5055412;28;20057;-73
2023/04/10 11:43:58;;;;;;;8.20;4.23;;;14.70;50.90;;;;;;5058019;28;20066;-73
2023/04/10 11:46:25;;;;;;;7.90;4.53;;;14.80;50.50;;;;;;5049624;28;20041;-73
2023/04/10 11:48:57;;;;;;;8.20;4.22;;;14.80;50.90;;;;;;5063096;28;20478;-73
2023/04/10 11:51:26;;;;;;;8.95;4.70;;;14.80;50.10;;;;;;5046737;28;20053;-73
2023/04/10 11:54:05;;;;;;;8.02;4.60;;;14.90;50.00;;;;;;5056143;28;20084;-72
2023/04/10 11:56:32;;;;;;;9.43;4.07;;;14.90;50.00;;;;;;5056808;28;20049;-73
2023/04/10 11:59:01;;;;;;;7.40;3.90;;;14.90;49.90;;;;;;5061385;28;20060;-73
2023/04/10 12:01:28;;;;;;;8.50;4.97;;;15.00;50.20;;;;;;5046386;28;20840;-73
2023/04/10 12:03:56;;;;;;;9.57;3.83;;;15.00;50.30;;;;;;5059987;28;20067;-72
2023/04/10 12:06:24;;;;;;;8.90;4.03;;;15.00;50.00;;;;;;5062650;28;20107;-73
2023/04/10 12:08:51;;;;;;;8.20;4.10;;;15.10;49.70;;;;;;5063829;28;20083;-73
2023/04/10 12:11:20;;;;;;;7.20;3.90;;;15.20;49.30;;;;;;5063292;28;20104;-73
2023/04/10 12:13:47;;;;;;;7.35;4.63;;;15.20;49.90;;;;;;5060742;28;20059;-73
2023/04/10 12:16:16;;;;;;;12.85;5.00;;;15.30;49.80;;;;;;5061594;28;20937;-73
2023/04/10 12:18:44;;;;;;;8.57;4.38;;;15.30;49.80;;;;;;5065009;28;20139;-72
2023/04/10 12:21:11;;;;;;;7.70;4.60;;;15.40;50.40;;;;;;5062588;28;20049;-72
2023/04/10 12:23:39;;;;;;;7.65;4.55;;;15.40;50.50;;;;;;5060673;28;20053;-73
2023/04/10 12:26:09;;;;;;;9.00;5.18;;;15.50;50.00;;;;;;5063213;28;20056;-73
2023/04/10 12:28:37;;;;;;;6.53;4.00;;;15.50;50.30;;;;;;5064494;28;21006;-72
2023/04/10 12:31:04;;;;;;;16.55;4.90;;;15.60;50.50;;;;;;5062393;28;20045;-73
2023/04/10 12:33:33;;;;;;;8.23;4.80;;;15.60;50.40;;;;;;5065579;28;20052;-73
2023/04/10 12:36:00;;;;;;;8.05;4.30;;;15.60;50.00;;;;;;5060180;28;20051;-73
2023/04/10 12:38:41;;;;;;;8.27;4.63;;;15.70;50.00;;;;;;5055475;28;20061;-72
2023/04/10 12:41:10;;;;;;;7.53;4.20;;;15.80;49.60;;;;;;5014937;28;20052;-73
2023/04/10 12:43:39;;;;;;;6.50;4.22;;;15.80;50.00;;;;;;5011134;28;20480;-72
2023/04/10 12:46:07;;;;;;;8.97;4.40;;;15.80;49.90;;;;;;5045683;28;20189;-73
2023/04/10 12:48:36;;;;;;;9.65;4.10;;;15.70;50.00;;;;;;5065320;28;20025;-73
2023/04/10 12:51:04;;;;;;;17.63;4.88;;;15.80;49.70;;;;;;5061353;28;20123;-73
2023/04/10 12:53:31;;;;;;;7.25;4.07;;;15.70;49.80;;;;;;5060984;28;20056;-73
2023/04/10 12:56:00;;;;;;;12.50;4.78;;;15.70;49.60;;;;;;5059346;28;20037;-72
2023/04/10 12:58:29;;;;;;;8.20;4.10;;;15.60;49.70;;;;;;5060640;28;20049;-73
2023/04/10 13:00:58;;;;;;;7.68;4.57;;;15.60;49.70;;;;;;5059158;28;20045;-73